sensor_id;sensor_type;location;lat;lon;timestamp;P1;durP1;ratioP1;P2;durP2;ratioP2
26486;SDS011;14425;56.136;40.360;2022-10-30T00:02:08;5.32;;;3.90;;
26486;SDS011;14425;56.136;40.360;2022-10-30T00:05:15;6.63;;;5.03;;
26486;SDS011;14425;56.136;40.360;2022-10-30T00:10:45;7.03;;;4.88;;
26486;SDS011;14425;56.136;40.360;2022-10-30T00:13:27;7.13;;;4.00;;
26486;SDS011;14425;56.136;40.360;2022-10-30T00:16:07;8.40;;;5.90;;
26486;SDS011;14425;56.136;40.360;2022-10-30T00:18:47;6.38;;;5.10;;
26486;SDS011;14425;56.136;40.360;2022-10-30T00:21:30;7.22;;;4.32;;
26486;SDS011;14425;56.136;40.360;2022-10-30T00:24:08;7.15;;;4.40;;
26486;SDS011;14425;56.136;40.360;2022-10-30T00:26:52;6.80;;;4.10;;
26486;SDS011;14425;56.136;40.360;2022-10-30T00:29:43;7.78;;;4.13;;
26486;SDS011;14425;56.136;40.360;2022-10-30T00:32:29;4.57;;;3.55;;
26486;SDS011;14425;56.136;40.360;2022-10-30T00:35:25;5.53;;;3.38;;
26486;SDS011;14425;56.136;40.360;2022-10-30T00:38:08;4.53;;;2.92;;
26486;SDS011;14425;56.136;40.360;2022-10-30T00:54:52;4.80;;;3.28;;
26486;SDS011;14425;56.136;40.360;2022-10-30T01:01:14;4.03;;;2.95;;
26486;SDS011;14425;56.136;40.360;2022-10-30T01:04:01;2.50;;;2.05;;
26486;SDS011;14425;56.136;40.360;2022-10-30T01:06:51;3.72;;;3.00;;
26486;SDS011;14425;56.136;40.360;2022-10-30T01:09:43;3.17;;;2.33;;
26486;SDS011;14425;56.136;40.360;2022-10-30T01:12:25;3.20;;;2.30;;
26486;SDS011;14425;56.136;40.360;2022-10-30T01:22:18;2.47;;;1.95;;
26486;SDS011;14425;56.136;40.360;2022-10-30T01:26:02;2.00;;;1.42;;
26486;SDS011;14425;56.136;40.360;2022-10-30T01:38:38;2.58;;;2.00;;
26486;SDS011;14425;56.136;40.360;2022-10-30T01:41:17;1.63;;;1.50;;
26486;SDS011;14425;56.136;40.360;2022-10-30T01:44:02;3.05;;;2.20;;
26486;SDS011;14425;56.136;40.360;2022-10-30T02:04:12;2.30;;;1.60;;
26486;SDS011;14425;56.136;40.360;2022-10-30T02:14:11;2.15;;;1.90;;
26486;SDS011;14425;56.136;40.360;2022-10-30T02:20:36;3.90;;;1.52;;
26486;SDS011;14425;56.136;40.360;2022-10-30T02:23:22;1.73;;;1.48;;
26486;SDS011;14425;56.136;40.360;2022-10-30T02:26:32;2.40;;;2.05;;
26486;SDS011;14425;56.136;40.360;2022-10-30T02:29:25;1.73;;;1.63;;
26486;SDS011;14425;56.136;40.360;2022-10-30T02:31:58;2.63;;;1.88;;
26486;SDS011;14425;56.136;40.360;2022-10-30T02:34:38;4.00;;;1.90;;
26486;SDS011;14425;56.136;40.360;2022-10-30T02:37:15;2.05;;;1.85;;
26486;SDS011;14425;56.136;40.360;2022-10-30T02:39:56;1.75;;;1.60;;
26486;SDS011;14425;56.136;40.360;2022-10-30T02:42:34;3.15;;;1.65;;
26486;SDS011;14425;56.136;40.360;2022-10-30T02:45:22;3.85;;;2.60;;
26486;SDS011;14425;56.136;40.360;2022-10-30T02:48:22;2.38;;;2.17;;
26486;SDS011;14425;56.136;40.360;2022-10-30T02:51:09;2.13;;;1.92;;
26486;SDS011;14425;56.136;40.360;2022-10-30T02:53:51;2.58;;;1.80;;
26486;SDS011;14425;56.136;40.360;2022-10-30T02:56:31;2.17;;;1.55;;
26486;SDS011;14425;56.136;40.360;2022-10-30T02:59:06;1.77;;;1.67;;
26486;SDS011;14425;56.136;40.360;2022-10-30T03:01:49;2.25;;;1.92;;
26486;SDS011;14425;56.136;40.360;2022-10-30T03:04:29;2.38;;;1.98;;
26486;SDS011;14425;56.136;40.360;2022-10-30T03:07:07;3.90;;;2.88;;
26486;SDS011;14425;56.136;40.360;2022-10-30T03:09:42;3.88;;;2.78;;
26486;SDS011;14425;56.136;40.360;2022-10-30T03:12:23;3.03;;;2.05;;
26486;SDS011;14425;56.136;40.360;2022-10-30T03:14:59;4.07;;;3.00;;
26486;SDS011;14425;56.136;40.360;2022-10-30T03:17:33;4.07;;;2.40;;
26486;SDS011;14425;56.136;40.360;2022-10-30T03:20:06;2.28;;;2.08;;
26486;SDS011;14425;56.136;40.360;2022-10-30T03:22:35;4.28;;;3.10;;
26486;SDS011;14425;56.136;40.360;2022-10-30T03:25:08;2.35;;;1.55;;
26486;SDS011;14425;56.136;40.360;2022-10-30T03:27:49;2.63;;;2.42;;
26486;SDS011;14425;56.136;40.360;2022-10-30T03:30:21;3.08;;;2.25;;
26486;SDS011;14425;56.136;40.360;2022-10-30T03:32:56;3.05;;;1.63;;
26486;SDS011;14425;56.136;40.360;2022-10-30T03:35:26;2.20;;;2.00;;
26486;SDS011;14425;56.136;40.360;2022-10-30T03:37:56;3.33;;;1.52;;
26486;SDS011;14425;56.136;40.360;2022-10-30T03:40:33;1.98;;;1.67;;
26486;SDS011;14425;56.136;40.360;2022-10-30T03:43:06;2.90;;;2.22;;
26486;SDS011;14425;56.136;40.360;2022-10-30T03:45:37;2.50;;;2.28;;
26486;SDS011;14425;56.136;40.360;2022-10-30T03:48:08;2.53;;;2.08;;
26486;SDS011;14425;56.136;40.360;2022-10-30T03:50:44;3.85;;;2.47;;
26486;SDS011;14425;56.136;40.360;2022-10-30T03:53:21;2.72;;;2.15;;
26486;SDS011;14425;56.136;40.360;2022-10-30T03:56:13;2.05;;;1.65;;
26486;SDS011;14425;56.136;40.360;2022-10-30T03:58:49;2.85;;;2.40;;
26486;SDS011;14425;56.136;40.360;2022-10-30T04:01:34;1.95;;;1.77;;
26486;SDS011;14425;56.136;40.360;2022-10-30T04:04:09;5.00;;;3.53;;
26486;SDS011;14425;56.136;40.360;2022-10-30T04:09:15;3.25;;;2.83;;
26486;SDS011;14425;56.136;40.360;2022-10-30T04:11:58;3.83;;;2.33;;
26486;SDS011;14425;56.136;40.360;2022-10-30T04:14:44;4.03;;;1.83;;
26486;SDS011;14425;56.136;40.360;2022-10-30T04:17:22;2.03;;;1.40;;
26486;SDS011;14425;56.136;40.360;2022-10-30T04:20:00;3.85;;;2.90;;
26486;SDS011;14425;56.136;40.360;2022-10-30T04:22:36;5.82;;;3.08;;
26486;SDS011;14425;56.136;40.360;2022-10-30T04:25:26;3.38;;;2.83;;
26486;SDS011;14425;56.136;40.360;2022-10-30T04:28:25;3.70;;;2.50;;
26486;SDS011;14425;56.136;40.360;2022-10-30T04:30:56;4.75;;;3.38;;
26486;SDS011;14425;56.136;40.360;2022-10-30T04:33:30;6.65;;;3.35;;
26486;SDS011;14425;56.136;40.360;2022-10-30T04:36:07;4.13;;;2.25;;
26486;SDS011;14425;56.136;40.360;2022-10-30T04:38:44;3.65;;;2.72;;
26486;SDS011;14425;56.136;40.360;2022-10-30T04:41:18;3.08;;;1.60;;
26486;SDS011;14425;56.136;40.360;2022-10-30T04:43:56;3.50;;;2.85;;
26486;SDS011;14425;56.136;40.360;2022-10-30T04:46:40;5.80;;;3.58;;
26486;SDS011;14425;56.136;40.360;2022-10-30T04:49:23;5.38;;;2.72;;
26486;SDS011;14425;56.136;40.360;2022-10-30T04:52:03;4.88;;;2.40;;
26486;SDS011;14425;56.136;40.360;2022-10-30T04:54:35;3.88;;;3.00;;
26486;SDS011;14425;56.136;40.360;2022-10-30T04:57:12;5.68;;;2.22;;
26486;SDS011;14425;56.136;40.360;2022-10-30T04:59:46;3.47;;;2.08;;
26486;SDS011;14425;56.136;40.360;2022-10-30T05:02:30;4.60;;;1.00;;
26486;SDS011;14425;56.136;40.360;2022-10-30T05:05:08;4.70;;;3.08;;
26486;SDS011;14425;56.136;40.360;2022-10-30T05:07:45;6.15;;;2.72;;
26486;SDS011;14425;56.136;40.360;2022-10-30T05:10:16;2.58;;;1.92;;
26486;SDS011;14425;56.136;40.360;2022-10-30T05:12:54;3.30;;;2.22;;
26486;SDS011;14425;56.136;40.360;2022-10-30T05:15:29;5.60;;;1.95;;
26486;SDS011;14425;56.136;40.360;2022-10-30T05:18:05;5.20;;;2.28;;
26486;SDS011;14425;56.136;40.360;2022-10-30T05:20:37;5.25;;;3.97;;
26486;SDS011;14425;56.136;40.360;2022-10-30T05:23:13;4.90;;;2.63;;
26486;SDS011;14425;56.136;40.360;2022-10-30T05:25:43;3.83;;;2.00;;
26486;SDS011;14425;56.136;40.360;2022-10-30T05:28:11;4.63;;;2.00;;
26486;SDS011;14425;56.136;40.360;2022-10-30T05:30:38;2.08;;;1.80;;
26486;SDS011;14425;56.136;40.360;2022-10-30T05:33:08;0.82;;;0.82;;
26486;SDS011;14425;56.136;40.360;2022-10-30T05:35:35;2.85;;;1.80;;
26486;SDS011;14425;56.136;40.360;2022-10-30T05:38:03;5.47;;;3.17;;
26486;SDS011;14425;56.136;40.360;2022-10-30T05:40:34;3.30;;;1.60;;
26486;SDS011;14425;56.136;40.360;2022-10-30T05:43:01;5.43;;;1.55;;
26486;SDS011;14425;56.136;40.360;2022-10-30T05:45:27;2.47;;;1.63;;
26486;SDS011;14425;56.136;40.360;2022-10-30T05:47:56;2.88;;;1.75;;
26486;SDS011;14425;56.136;40.360;2022-10-30T05:50:25;2.47;;;2.00;;
26486;SDS011;14425;56.136;40.360;2022-10-30T05:52:56;2.42;;;1.75;;
26486;SDS011;14425;56.136;40.360;2022-10-30T05:55:28;2.45;;;1.23;;
26486;SDS011;14425;56.136;40.360;2022-10-30T05:58:06;3.35;;;1.83;;
26486;SDS011;14425;56.136;40.360;2022-10-30T06:03:38;1.20;;;0.90;;
26486;SDS011;14425;56.136;40.360;2022-10-30T06:06:14;3.30;;;1.48;;
26486;SDS011;14425;56.136;40.360;2022-10-30T06:08:45;1.52;;;1.13;;
26486;SDS011;14425;56.136;40.360;2022-10-30T06:11:17;1.50;;;1.20;;
26486;SDS011;14425;56.136;40.360;2022-10-30T06:13:43;3.50;;;1.33;;
26486;SDS011;14425;56.136;40.360;2022-10-30T06:16:30;1.45;;;1.05;;
26486;SDS011;14425;56.136;40.360;2022-10-30T06:19:00;1.90;;;1.20;;
26486;SDS011;14425;56.136;40.360;2022-10-30T06:21:54;2.08;;;0.70;;
26486;SDS011;14425;56.136;40.360;2022-10-30T06:24:30;2.63;;;1.20;;
26486;SDS011;14425;56.136;40.360;2022-10-30T06:27:14;1.20;;;0.98;;
26486;SDS011;14425;56.136;40.360;2022-10-30T06:30:05;1.13;;;0.63;;
26486;SDS011;14425;56.136;40.360;2022-10-30T06:32:47;1.50;;;0.88;;
26486;SDS011;14425;56.136;40.360;2022-10-30T06:35:42;3.58;;;0.95;;
26486;SDS011;14425;56.136;40.360;2022-10-30T06:38:23;1.95;;;0.88;;
26486;SDS011;14425;56.136;40.360;2022-10-30T06:40:51;4.22;;;1.33;;
26486;SDS011;14425;56.136;40.360;2022-10-30T06:43:34;4.95;;;1.35;;
26486;SDS011;14425;56.136;40.360;2022-10-30T06:46:11;2.80;;;0.85;;
26486;SDS011;14425;56.136;40.360;2022-10-30T06:48:46;2.85;;;1.00;;
26486;SDS011;14425;56.136;40.360;2022-10-30T06:51:15;0.90;;;0.63;;
26486;SDS011;14425;56.136;40.360;2022-10-30T06:53:42;1.20;;;0.80;;
26486;SDS011;14425;56.136;40.360;2022-10-30T06:56:12;2.72;;;1.17;;
26486;SDS011;14425;56.136;40.360;2022-10-30T06:58:41;0.90;;;0.50;;
26486;SDS011;14425;56.136;40.360;2022-10-30T07:01:09;2.60;;;1.23;;
26486;SDS011;14425;56.136;40.360;2022-10-30T07:03:36;0.55;;;0.43;;
26486;SDS011;14425;56.136;40.360;2022-10-30T07:06:06;0.80;;;0.32;;
26486;SDS011;14425;56.136;40.360;2022-10-30T07:08:38;2.47;;;0.40;;
26486;SDS011;14425;56.136;40.360;2022-10-30T07:11:04;2.33;;;0.85;;
26486;SDS011;14425;56.136;40.360;2022-10-30T07:13:30;2.05;;;0.40;;
26486;SDS011;14425;56.136;40.360;2022-10-30T07:15:59;1.15;;;0.75;;
26486;SDS011;14425;56.136;40.360;2022-10-30T07:18:26;6.28;;;0.70;;
26486;SDS011;14425;56.136;40.360;2022-10-30T07:20:53;1.30;;;0.60;;
26486;SDS011;14425;56.136;40.360;2022-10-30T07:23:22;1.52;;;0.80;;
26486;SDS011;14425;56.136;40.360;2022-10-30T07:25:48;0.22;;;0.17;;
26486;SDS011;14425;56.136;40.360;2022-10-30T07:28:14;6.53;;;1.35;;
26486;SDS011;14425;56.136;40.360;2022-10-30T07:30:39;1.90;;;1.00;;
26486;SDS011;14425;56.136;40.360;2022-10-30T07:33:06;3.10;;;1.10;;
26486;SDS011;14425;56.136;40.360;2022-10-30T07:35:34;4.55;;;1.45;;
26486;SDS011;14425;56.136;40.360;2022-10-30T07:38:04;3.67;;;1.50;;
26486;SDS011;14425;56.136;40.360;2022-10-30T07:40:31;3.15;;;1.30;;
26486;SDS011;14425;56.136;40.360;2022-10-30T07:42:59;1.60;;;0.80;;
26486;SDS011;14425;56.136;40.360;2022-10-30T07:45:26;2.78;;;0.95;;
26486;SDS011;14425;56.136;40.360;2022-10-30T07:47:55;1.08;;;0.70;;
26486;SDS011;14425;56.136;40.360;2022-10-30T07:50:21;3.45;;;1.48;;
26486;SDS011;14425;56.136;40.360;2022-10-30T07:52:48;1.85;;;0.75;;
26486;SDS011;14425;56.136;40.360;2022-10-30T07:55:20;0.93;;;0.85;;
26486;SDS011;14425;56.136;40.360;2022-10-30T07:57:46;5.57;;;0.93;;
26486;SDS011;14425;56.136;40.360;2022-10-30T08:00:12;2.65;;;0.50;;
26486;SDS011;14425;56.136;40.360;2022-10-30T08:02:40;2.53;;;0.75;;
26486;SDS011;14425;56.136;40.360;2022-10-30T08:05:07;2.90;;;0.95;;
26486;SDS011;14425;56.136;40.360;2022-10-30T08:07:36;2.13;;;0.65;;
26486;SDS011;14425;56.136;40.360;2022-10-30T08:10:04;2.28;;;0.80;;
26486;SDS011;14425;56.136;40.360;2022-10-30T08:12:32;2.15;;;0.63;;
26486;SDS011;14425;56.136;40.360;2022-10-30T08:14:59;2.00;;;0.95;;
26486;SDS011;14425;56.136;40.360;2022-10-30T08:17:25;3.55;;;1.45;;
26486;SDS011;14425;56.136;40.360;2022-10-30T08:19:51;2.05;;;0.95;;
26486;SDS011;14425;56.136;40.360;2022-10-30T08:22:16;1.65;;;0.68;;
26486;SDS011;14425;56.136;40.360;2022-10-30T08:24:42;1.05;;;0.50;;
26486;SDS011;14425;56.136;40.360;2022-10-30T08:27:09;1.00;;;0.50;;
26486;SDS011;14425;56.136;40.360;2022-10-30T08:29:34;3.38;;;2.70;;
26486;SDS011;14425;56.136;40.360;2022-10-30T08:32:03;3.72;;;1.92;;
26486;SDS011;14425;56.136;40.360;2022-10-30T08:34:30;1.85;;;1.60;;
26486;SDS011;14425;56.136;40.360;2022-10-30T08:36:56;2.75;;;1.67;;
26486;SDS011;14425;56.136;40.360;2022-10-30T08:39:22;4.43;;;2.00;;
26486;SDS011;14425;56.136;40.360;2022-10-30T08:41:48;0.95;;;0.60;;
26486;SDS011;14425;56.136;40.360;2022-10-30T08:44:17;0.52;;;0.43;;
26486;SDS011;14425;56.136;40.360;2022-10-30T08:46:42;1.13;;;0.60;;
26486;SDS011;14425;56.136;40.360;2022-10-30T08:49:08;8.80;;;1.33;;
26486;SDS011;14425;56.136;40.360;2022-10-30T08:51:34;3.60;;;0.75;;
26486;SDS011;14425;56.136;40.360;2022-10-30T08:54:01;1.75;;;0.73;;
26486;SDS011;14425;56.136;40.360;2022-10-30T08:56:27;0.40;;;0.28;;
26486;SDS011;14425;56.136;40.360;2022-10-30T08:58:53;0.77;;;0.13;;
26486;SDS011;14425;56.136;40.360;2022-10-30T09:01:19;0.20;;;0.20;;
26486;SDS011;14425;56.136;40.360;2022-10-30T09:03:48;1.42;;;0.70;;
26486;SDS011;14425;56.136;40.360;2022-10-30T09:06:13;2.67;;;1.10;;
26486;SDS011;14425;56.136;40.360;2022-10-30T09:08:39;4.57;;;1.70;;
26486;SDS011;14425;56.136;40.360;2022-10-30T09:11:06;3.45;;;1.67;;
26486;SDS011;14425;56.136;40.360;2022-10-30T09:13:31;2.65;;;1.30;;
26486;SDS011;14425;56.136;40.360;2022-10-30T09:15:59;3.97;;;2.00;;
26486;SDS011;14425;56.136;40.360;2022-10-30T09:18:26;4.43;;;1.60;;
26486;SDS011;14425;56.136;40.360;2022-10-30T09:20:52;3.03;;;1.70;;
26486;SDS011;14425;56.136;40.360;2022-10-30T09:23:17;2.30;;;1.33;;
26486;SDS011;14425;56.136;40.360;2022-10-30T09:25:43;3.92;;;1.48;;
26486;SDS011;14425;56.136;40.360;2022-10-30T09:28:08;4.43;;;1.40;;
26486;SDS011;14425;56.136;40.360;2022-10-30T09:30:34;1.40;;;0.70;;
26486;SDS011;14425;56.136;40.360;2022-10-30T09:33:02;4.43;;;1.88;;
26486;SDS011;14425;56.136;40.360;2022-10-30T09:35:28;1.70;;;0.90;;
26486;SDS011;14425;56.136;40.360;2022-10-30T09:37:55;2.28;;;0.93;;
26486;SDS011;14425;56.136;40.360;2022-10-30T09:40:33;0.35;;;0.30;;
26486;SDS011;14425;56.136;40.360;2022-10-30T09:51:47;1.35;;;0.47;;
26486;SDS011;14425;56.136;40.360;2022-10-30T09:57:20;1.17;;;0.80;;
26486;SDS011;14425;56.136;40.360;2022-10-30T10:05:34;4.38;;;0.73;;
26486;SDS011;14425;56.136;40.360;2022-10-30T10:11:18;3.75;;;0.98;;
26486;SDS011;14425;56.136;40.360;2022-10-30T10:16:24;5.13;;;2.72;;
26486;SDS011;14425;56.136;40.360;2022-10-30T10:22:02;0.88;;;0.65;;
26486;SDS011;14425;56.136;40.360;2022-10-30T10:24:38;1.63;;;0.82;;
26486;SDS011;14425;56.136;40.360;2022-10-30T10:41:15;6.32;;;2.95;;
26486;SDS011;14425;56.136;40.360;2022-10-30T10:51:44;1.13;;;0.55;;
26486;SDS011;14425;56.136;40.360;2022-10-30T10:54:35;2.05;;;0.40;;
26486;SDS011;14425;56.136;40.360;2022-10-30T10:57:04;0.37;;;0.37;;
26486;SDS011;14425;56.136;40.360;2022-10-30T10:59:33;0.40;;;0.32;;
26486;SDS011;14425;56.136;40.360;2022-10-30T11:04:30;0.70;;;0.40;;
26486;SDS011;14425;56.136;40.360;2022-10-30T11:07:21;0.40;;;0.30;;
26486;SDS011;14425;56.136;40.360;2022-10-30T11:09:50;0.70;;;0.50;;
26486;SDS011;14425;56.136;40.360;2022-10-30T11:12:29;0.98;;;0.30;;
26486;SDS011;14425;56.136;40.360;2022-10-30T11:18:08;0.20;;;0.20;;
26486;SDS011;14425;56.136;40.360;2022-10-30T11:28:52;1.30;;;0.60;;
26486;SDS011;14425;56.136;40.360;2022-10-30T11:31:57;1.63;;;0.40;;
26486;SDS011;14425;56.136;40.360;2022-10-30T11:34:31;2.00;;;0.30;;
26486;SDS011;14425;56.136;40.360;2022-10-30T11:37:00;0.68;;;0.40;;
26486;SDS011;14425;56.136;40.360;2022-10-30T11:39:26;0.85;;;0.22;;
26486;SDS011;14425;56.136;40.360;2022-10-30T11:42:14;0.60;;;0.50;;
26486;SDS011;14425;56.136;40.360;2022-10-30T11:44:50;0.57;;;0.30;;
26486;SDS011;14425;56.136;40.360;2022-10-30T11:47:21;0.88;;;0.38;;
26486;SDS011;14425;56.136;40.360;2022-10-30T11:50:02;1.65;;;0.50;;
26486;SDS011;14425;56.136;40.360;2022-10-30T11:52:39;0.30;;;0.20;;
26486;SDS011;14425;56.136;40.360;2022-10-30T11:57:45;0.40;;;0.03;;
26486;SDS011;14425;56.136;40.360;2022-10-30T12:02:46;0.35;;;0.22;;
26486;SDS011;14425;56.136;40.360;2022-10-30T12:10:34;0.70;;;0.22;;
26486;SDS011;14425;56.136;40.360;2022-10-30T12:13:13;1.70;;;0.68;;
26486;SDS011;14425;56.136;40.360;2022-10-30T12:18:07;0.68;;;0.32;;
26486;SDS011;14425;56.136;40.360;2022-10-30T12:20:51;2.35;;;0.65;;
26486;SDS011;14425;56.136;40.360;2022-10-30T12:23:19;0.95;;;0.47;;
26486;SDS011;14425;56.136;40.360;2022-10-30T12:25:56;3.00;;;0.55;;
26486;SDS011;14425;56.136;40.360;2022-10-30T12:28:32;1.45;;;0.90;;
26486;SDS011;14425;56.136;40.360;2022-10-30T12:34:03;3.13;;;1.25;;
26486;SDS011;14425;56.136;40.360;2022-10-30T12:36:32;1.52;;;0.63;;
26486;SDS011;14425;56.136;40.360;2022-10-30T12:39:04;2.45;;;0.93;;
26486;SDS011;14425;56.136;40.360;2022-10-30T12:44:31;2.90;;;1.15;;
26486;SDS011;14425;56.136;40.360;2022-10-30T12:47:18;2.33;;;1.10;;
26486;SDS011;14425;56.136;40.360;2022-10-30T12:50:02;1.42;;;0.35;;
26486;SDS011;14425;56.136;40.360;2022-10-30T12:55:27;1.05;;;0.60;;
26486;SDS011;14425;56.136;40.360;2022-10-30T12:58:10;1.55;;;0.30;;
26486;SDS011;14425;56.136;40.360;2022-10-30T13:03:45;0.80;;;0.35;;
26486;SDS011;14425;56.136;40.360;2022-10-30T13:06:19;2.25;;;1.30;;
26486;SDS011;14425;56.136;40.360;2022-10-30T13:09:13;1.85;;;0.98;;
26486;SDS011;14425;56.136;40.360;2022-10-30T13:12:02;1.77;;;0.60;;
26486;SDS011;14425;56.136;40.360;2022-10-30T13:17:19;1.63;;;0.65;;
26486;SDS011;14425;56.136;40.360;2022-10-30T13:19:45;1.35;;;0.88;;
26486;SDS011;14425;56.136;40.360;2022-10-30T13:27:41;0.63;;;0.50;;
26486;SDS011;14425;56.136;40.360;2022-10-30T13:30:16;0.55;;;0.55;;
26486;SDS011;14425;56.136;40.360;2022-10-30T13:32:51;0.85;;;0.60;;
26486;SDS011;14425;56.136;40.360;2022-10-30T13:35:41;1.95;;;0.55;;
26486;SDS011;14425;56.136;40.360;2022-10-30T13:41:52;0.30;;;0.30;;
26486;SDS011;14425;56.136;40.360;2022-10-30T13:50:10;0.20;;;0.13;;
26486;SDS011;14425;56.136;40.360;2022-10-30T13:53:00;1.13;;;0.25;;
26486;SDS011;14425;56.136;40.360;2022-10-30T13:55:34;3.80;;;0.45;;
26486;SDS011;14425;56.136;40.360;2022-10-30T14:05:57;2.03;;;0.50;;
26486;SDS011;14425;56.136;40.360;2022-10-30T14:08:49;2.13;;;0.47;;
26486;SDS011;14425;56.136;40.360;2022-10-30T14:11:16;2.72;;;0.40;;
26486;SDS011;14425;56.136;40.360;2022-10-30T14:13:51;0.45;;;0.40;;
26486;SDS011;14425;56.136;40.360;2022-10-30T14:19:08;0.38;;;0.32;;
26486;SDS011;14425;56.136;40.360;2022-10-30T14:21:51;0.30;;;0.30;;
26486;SDS011;14425;56.136;40.360;2022-10-30T14:24:22;0.85;;;0.35;;
26486;SDS011;14425;56.136;40.360;2022-10-30T14:29:29;2.10;;;0.90;;
26486;SDS011;14425;56.136;40.360;2022-10-30T14:31:58;5.32;;;2.22;;
26486;SDS011;14425;56.136;40.360;2022-10-30T14:34:40;1.13;;;0.60;;
26486;SDS011;14425;56.136;40.360;2022-10-30T14:37:06;1.05;;;0.70;;
26486;SDS011;14425;56.136;40.360;2022-10-30T14:39:42;2.28;;;0.98;;
26486;SDS011;14425;56.136;40.360;2022-10-30T14:55:25;1.08;;;0.68;;
26486;SDS011;14425;56.136;40.360;2022-10-30T15:00:43;1.95;;;1.08;;
26486;SDS011;14425;56.136;40.360;2022-10-30T15:05:53;0.32;;;0.30;;
26486;SDS011;14425;56.136;40.360;2022-10-30T15:13:52;1.27;;;0.40;;
26486;SDS011;14425;56.136;40.360;2022-10-30T15:16:21;2.85;;;0.50;;
26486;SDS011;14425;56.136;40.360;2022-10-30T15:19:02;3.03;;;1.40;;
26486;SDS011;14425;56.136;40.360;2022-10-30T15:21:40;5.93;;;3.35;;
26486;SDS011;14425;56.136;40.360;2022-10-30T15:24:14;2.05;;;1.10;;
26486;SDS011;14425;56.136;40.360;2022-10-30T15:26:43;1.48;;;0.73;;
26486;SDS011;14425;56.136;40.360;2022-10-30T15:29:17;1.08;;;0.90;;
26486;SDS011;14425;56.136;40.360;2022-10-30T15:31:55;0.35;;;0.35;;
26486;SDS011;14425;56.136;40.360;2022-10-30T15:34:29;2.90;;;2.50;;
26486;SDS011;14425;56.136;40.360;2022-10-30T15:36:56;2.22;;;2.03;;
26486;SDS011;14425;56.136;40.360;2022-10-30T15:39:22;1.27;;;0.95;;
26486;SDS011;14425;56.136;40.360;2022-10-30T15:44:21;1.88;;;0.50;;
26486;SDS011;14425;56.136;40.360;2022-10-30T15:46:49;0.90;;;0.60;;
26486;SDS011;14425;56.136;40.360;2022-10-30T15:49:32;0.50;;;0.50;;
26486;SDS011;14425;56.136;40.360;2022-10-30T15:52:00;0.43;;;0.30;;
26486;SDS011;14425;56.136;40.360;2022-10-30T15:54:29;0.10;;;0.10;;
26486;SDS011;14425;56.136;40.360;2022-10-30T15:56:57;0.10;;;0.10;;
26486;SDS011;14425;56.136;40.360;2022-10-30T15:59:25;0.20;;;0.17;;
26486;SDS011;14425;56.136;40.360;2022-10-30T16:01:54;0.50;;;0.10;;
26486;SDS011;14425;56.136;40.360;2022-10-30T16:04:22;1.35;;;0.40;;
26486;SDS011;14425;56.136;40.360;2022-10-30T16:06:54;1.85;;;1.30;;
26486;SDS011;14425;56.136;40.360;2022-10-30T16:09:21;0.32;;;0.32;;
26486;SDS011;14425;56.136;40.360;2022-10-30T16:11:49;0.50;;;0.20;;
26486;SDS011;14425;56.136;40.360;2022-10-30T16:14:20;0.82;;;0.40;;
26486;SDS011;14425;56.136;40.360;2022-10-30T16:16:48;0.30;;;0.30;;
26486;SDS011;14425;56.136;40.360;2022-10-30T16:19:19;0.43;;;0.40;;
26486;SDS011;14425;56.136;40.360;2022-10-30T16:21:54;0.80;;;0.40;;
26486;SDS011;14425;56.136;40.360;2022-10-30T16:24:22;1.55;;;0.88;;
26486;SDS011;14425;56.136;40.360;2022-10-30T16:27:01;1.33;;;0.75;;
26486;SDS011;14425;56.136;40.360;2022-10-30T16:29:27;2.15;;;0.60;;
26486;SDS011;14425;56.136;40.360;2022-10-30T16:31:55;1.02;;;0.65;;
26486;SDS011;14425;56.136;40.360;2022-10-30T16:34:27;0.77;;;0.50;;
26486;SDS011;14425;56.136;40.360;2022-10-30T16:37:02;1.38;;;0.88;;
26486;SDS011;14425;56.136;40.360;2022-10-30T16:39:30;1.98;;;0.77;;
26486;SDS011;14425;56.136;40.360;2022-10-30T16:41:59;4.45;;;1.77;;
26486;SDS011;14425;56.136;40.360;2022-10-30T16:44:29;0.98;;;0.50;;
26486;SDS011;14425;56.136;40.360;2022-10-30T16:49:42;0.40;;;0.35;;
26486;SDS011;14425;56.136;40.360;2022-10-30T16:52:17;0.90;;;0.50;;
26486;SDS011;14425;56.136;40.360;2022-10-30T16:54:51;2.53;;;0.50;;
26486;SDS011;14425;56.136;40.360;2022-10-30T16:57:27;1.08;;;0.40;;
26486;SDS011;14425;56.136;40.360;2022-10-30T16:59:56;2.00;;;0.50;;
26486;SDS011;14425;56.136;40.360;2022-10-30T17:02:25;2.33;;;0.60;;
26486;SDS011;14425;56.136;40.360;2022-10-30T17:08:02;1.98;;;0.63;;
26486;SDS011;14425;56.136;40.360;2022-10-30T17:10:41;0.30;;;0.25;;
26486;SDS011;14425;56.136;40.360;2022-10-30T17:13:35;1.27;;;0.40;;
26486;SDS011;14425;56.136;40.360;2022-10-30T17:18:55;0.95;;;0.50;;
26486;SDS011;14425;56.136;40.360;2022-10-30T17:21:38;1.20;;;0.40;;
26486;SDS011;14425;56.136;40.360;2022-10-30T17:24:15;1.33;;;0.47;;
26486;SDS011;14425;56.136;40.360;2022-10-30T17:26:44;2.45;;;0.40;;
26486;SDS011;14425;56.136;40.360;2022-10-30T17:32:00;0.38;;;0.28;;
26486;SDS011;14425;56.136;40.360;2022-10-30T17:34:41;2.05;;;0.80;;
26486;SDS011;14425;56.136;40.360;2022-10-30T17:37:06;1.25;;;0.68;;
26486;SDS011;14425;56.136;40.360;2022-10-30T17:39:32;1.17;;;0.47;;
26486;SDS011;14425;56.136;40.360;2022-10-30T17:41:58;4.75;;;0.80;;
26486;SDS011;14425;56.136;40.360;2022-10-30T17:44:23;0.88;;;0.50;;
26486;SDS011;14425;56.136;40.360;2022-10-30T17:46:50;0.90;;;0.47;;
26486;SDS011;14425;56.136;40.360;2022-10-30T17:49:29;1.33;;;0.70;;
26486;SDS011;14425;56.136;40.360;2022-10-30T17:52:04;0.90;;;0.40;;
26486;SDS011;14425;56.136;40.360;2022-10-30T17:54:31;1.77;;;0.68;;
26486;SDS011;14425;56.136;40.360;2022-10-30T17:56:58;0.60;;;0.45;;
26486;SDS011;14425;56.136;40.360;2022-10-30T17:59:23;0.75;;;0.50;;
26486;SDS011;14425;56.136;40.360;2022-10-30T18:01:56;2.72;;;0.90;;
26486;SDS011;14425;56.136;40.360;2022-10-30T18:04:22;2.13;;;0.60;;
26486;SDS011;14425;56.136;40.360;2022-10-30T18:06:47;3.28;;;0.50;;
26486;SDS011;14425;56.136;40.360;2022-10-30T18:09:13;2.17;;;0.65;;
26486;SDS011;14425;56.136;40.360;2022-10-30T18:11:40;0.73;;;0.30;;
26486;SDS011;14425;56.136;40.360;2022-10-30T18:14:06;0.70;;;0.40;;
26486;SDS011;14425;56.136;40.360;2022-10-30T18:16:37;1.52;;;0.40;;
26486;SDS011;14425;56.136;40.360;2022-10-30T18:19:07;0.82;;;0.25;;
26486;SDS011;14425;56.136;40.360;2022-10-30T18:21:37;0.20;;;0.20;;
26486;SDS011;14425;56.136;40.360;2022-10-30T18:24:21;0.60;;;0.30;;
26486;SDS011;14425;56.136;40.360;2022-10-30T18:26:47;0.50;;;0.20;;
26486;SDS011;14425;56.136;40.360;2022-10-30T18:29:13;0.13;;;0.13;;
26486;SDS011;14425;56.136;40.360;2022-10-30T18:31:42;0.43;;;0.20;;
26486;SDS011;14425;56.136;40.360;2022-10-30T18:34:13;0.77;;;0.77;;
26486;SDS011;14425;56.136;40.360;2022-10-30T18:36:41;2.72;;;0.40;;
26486;SDS011;14425;56.136;40.360;2022-10-30T18:39:10;0.17;;;0.17;;
26486;SDS011;14425;56.136;40.360;2022-10-30T18:41:39;4.75;;;0.40;;
26486;SDS011;14425;56.136;40.360;2022-10-30T18:44:08;0.20;;;0.20;;
26486;SDS011;14425;56.136;40.360;2022-10-30T18:46:40;0.75;;;0.30;;
26486;SDS011;14425;56.136;40.360;2022-10-30T18:49:06;0.20;;;0.10;;
26486;SDS011;14425;56.136;40.360;2022-10-30T18:51:31;0.65;;;0.10;;
26486;SDS011;14425;56.136;40.360;2022-10-30T18:53:57;0.20;;;0.00;;
26486;SDS011;14425;56.136;40.360;2022-10-30T18:56:26;0.22;;;0.22;;
26486;SDS011;14425;56.136;40.360;2022-10-30T18:58:53;0.05;;;0.05;;
26486;SDS011;14425;56.136;40.360;2022-10-30T19:04:10;0.32;;;0.20;;